^^
Saratoga-Weather Station Historical Data
Daily Summary for August 13, 2019 Units:  Both    English   Metric
Daily Weekly Monthly Yearly
  High: Low: Average:
Temperature: 83.8 °F /  28.8 °C 66.7 °F /  19.3 °C 75.2 °F /  24 °C
Dew Point: 68.7 °F /  20.4 °C 63.3 °F /  17.4 °C 66 °F /  18.9 °C
Humidity: 91.4% 53.8% 75%
Wind Speed: 10.3mph /  16.5km/h - 5.5mph /  8.9km/h
Wind Gust: 13mph /  20.9km/h - -
Wind- - WSW
Pressure: 29.8 in /  1010.5 hPa 29.7 in /  1007.0 hPa -
Precipitation: 0 in /  0.0 mm    
 
 
Tabular Data for August 13, 2019
Time Temperature Dew Point Pressure Wind Wind Speed Wind Gust Humidity Rainfall Rate (Hourly) solar
00:04 71.6 °F /  22 °C 68.5 °F /  20.3 °C 29.8in /  1010.3hPa SW 3mph /  4.8km/h 4mph /  6.4km/h 90% 0in /  0.0mm 0 W/m2
00:09 71.4 °F /  21.9 °C 68.4 °F /  20.2 °C 29.8in /  1010.4hPa SW 3.7mph /  6km/h 3.9mph /  6.3km/h 90% 0in /  0.0mm 0 W/m2
00:14 71.4 °F /  21.9 °C 68.2 °F /  20.1 °C 29.8in /  1010.4hPa SW 3.4mph /  5.4km/h 5mph /  8km/h 90% 0in /  0.0mm 0 W/m2
00:19 71.2 °F /  21.8 °C 68.2 °F /  20.1 °C 29.8in /  1010.4hPa SW 4.2mph /  6.8km/h 4mph /  6.4km/h 90% 0in /  0.0mm 0 W/m2
00:23 71.2 °F /  21.8 °C 68.2 °F /  20.1 °C 29.8in /  1010.4hPa SW 3.7mph /  5.9km/h 6mph /  9.7km/h 90% 0in /  0.0mm 0 W/m2
00:29 71.1 °F /  21.7 °C 67.8 °F /  19.9 °C 29.8in /  1010.4hPa SSW 3.5mph /  5.6km/h 2mph /  3.2km/h 90% 0in /  0.0mm 0 W/m2
00:34 71.1 °F /  21.7 °C 67.8 °F /  19.9 °C 29.8in /  1010.4hPa SSW 3.4mph /  5.5km/h 5mph /  8km/h 90% 0in /  0.0mm 0 W/m2
00:39 70.9 °F /  21.6 °C 67.8 °F /  19.9 °C 29.8in /  1010.4hPa SSW 3.4mph /  5.4km/h 4mph /  6.4km/h 90% 0in /  0.0mm 0 W/m2
00:44 70.9 °F /  21.6 °C 67.6 °F /  19.8 °C 29.8in /  1010.5hPa SSW 3.4mph /  5.4km/h 4mph /  6.4km/h 90% 0in /  0.0mm 0 W/m2
00:49 70.9 °F /  21.6 °C 67.6 °F /  19.8 °C 29.8in /  1010.5hPa SSW 1.6mph /  2.5km/h 3mph /  4.8km/h 90% 0in /  0.0mm 0 W/m2
00:54 70.9 °F /  21.6 °C 67.6 °F /  19.8 °C 29.8in /  1010.4hPa SSW 0.6mph /  1km/h 2mph /  3.2km/h 90% 0in /  0.0mm 0 W/m2
00:59 70.7 °F /  21.5 °C 67.6 °F /  19.8 °C 29.8in /  1010.5hPa SSW 1.9mph /  3km/h 1.1mph /  1.8km/h 90% 0in /  0.0mm 0 W/m2
01:04 70.7 °F /  21.5 °C 67.6 °F /  19.8 °C 29.8in /  1010.3hPa SSW 1.6mph /  2.6km/h 2mph /  3.2km/h 90% 0in /  0.0mm 0 W/m2
01:09 70.7 °F /  21.5 °C 67.5 °F /  19.7 °C 29.8in /  1010.3hPa SSW 2mph /  3.2km/h 2mph /  3.2km/h 90% 0in /  0.0mm 0 W/m2
01:14 70.5 °F /  21.4 °C 67.5 °F /  19.7 °C 29.8in /  1010.2hPa Calm   3mph /  4.8km/h 90% 0in /  0.0mm 0 W/m2
01:19 70.5 °F /  21.4 °C 67.5 °F /  19.7 °C 29.8in /  1010.1hPa Calm     90% 0in /  0.0mm 0 W/m2
01:24 70.5 °F /  21.4 °C 67.5 °F /  19.7 °C 29.8in /  1010.1hPa SSW 1.5mph /  2.4km/h 1.2mph /  1.9km/h 90% 0in /  0.0mm 0 W/m2
01:29 70.5 °F /  21.4 °C 67.5 °F /  19.7 °C 29.8in /  1010.0hPa SSW 1.9mph /  3.1km/h 2mph /  3.2km/h 89.6% 0in /  0.0mm 0 W/m2
01:34 70.5 °F /  21.4 °C 67.5 °F /  19.7 °C 29.8in /  1009.9hPa SSW 3.1mph /  5km/h 3mph /  4.8km/h 89.6% 0in /  0.0mm 0 W/m2
01:39 70.5 °F /  21.4 °C 67.3 °F /  19.6 °C 29.8in /  1009.9hPa SSW 2.4mph /  3.9km/h 4mph /  6.4km/h 89% 0in /  0.0mm 0 W/m2
01:44 70.5 °F /  21.4 °C 67.1 °F /  19.5 °C 29.8in /  1010.0hPa SSW 0.7mph /  1.2km/h 2mph /  3.2km/h 89% 0in /  0.0mm 0 W/m2
01:49 70.5 °F /  21.4 °C 67.1 °F /  19.5 °C 29.8in /  1010.1hPa Calm   1mph /  1.6km/h 89% 0in /  0.0mm 0 W/m2
01:54 70.5 °F /  21.4 °C 67.1 °F /  19.5 °C 29.8in /  1010.1hPa Calm     89% 0in /  0.0mm 0 W/m2
01:59 70.5 °F /  21.4 °C 67.3 °F /  19.6 °C 29.8in /  1010.1hPa SW 1.1mph /  1.7km/h 2.4mph /  3.9km/h 89.3% 0in /  0.0mm 0 W/m2
02:03 70.7 °F /  21.5 °C 67.6 °F /  19.8 °C 29.8in /  1010.1hPa West 2.7mph /  4.4km/h 4mph /  6.4km/h 90% 0in /  0.0mm 0 W/m2
02:09 70.7 °F /  21.5 °C 67.6 °F /  19.8 °C 29.8in /  1010.0hPa West 2.3mph /  3.7km/h 4mph /  6.4km/h 90% 0in /  0.0mm 0 W/m2
02:14 70.9 °F /  21.6 °C 67.6 °F /  19.8 °C 29.8in /  1010.0hPa West 1.9mph /  3.1km/h 2mph /  3.2km/h 90% 0in /  0.0mm 0 W/m2
02:19 70.9 °F /  21.6 °C 67.6 °F /  19.8 °C 29.8in /  1009.9hPa WSW 3.8mph /  6.1km/h 3.5mph /  5.6km/h 89.7% 0in /  0.0mm 0 W/m2
02:24 70.9 °F /  21.6 °C 67.5 °F /  19.7 °C 29.8in /  1010.0hPa WSW 3mph /  4.9km/h 6mph /  9.7km/h 89% 0in /  0.0mm 0 W/m2
02:29 70.9 °F /  21.6 °C 67.5 °F /  19.7 °C 29.8in /  1010.0hPa WSW 3.2mph /  5.2km/h 4mph /  6.4km/h 89% 0in /  0.0mm 0 W/m2
02:34 70.9 °F /  21.6 °C 67.6 °F /  19.8 °C 29.8in /  1010.0hPa West 4mph /  6.5km/h 4mph /  6.4km/h 89% 0in /  0.0mm 0 W/m2
02:39 71.1 °F /  21.7 °C 67.6 °F /  19.8 °C 29.8in /  1010.0hPa West 4.2mph /  6.8km/h 5mph /  8km/h 89% 0in /  0.0mm 0 W/m2
02:44 71.1 °F /  21.7 °C 68 °F /  20 °C 29.8in /  1010.0hPa West 3.2mph /  5.2km/h 6mph /  9.7km/h 89.7% 0in /  0.0mm 0 W/m2
02:49 71.2 °F /  21.8 °C 68.2 °F /  20.1 °C 29.8in /  1010.0hPa WNW 4.2mph /  6.7km/h 5mph /  8km/h 90% 0in /  0.0mm 0 W/m2
02:54 71.2 °F /  21.8 °C 68.2 °F /  20.1 °C 29.8in /  1009.9hPa West 4mph /  6.4km/h 6mph /  9.7km/h 90% 0in /  0.0mm 0 W/m2
02:59 71.4 °F /  21.9 °C 68.2 °F /  20.1 °C 29.8in /  1009.9hPa West 5mph /  8km/h 7mph /  11.3km/h 89.4% 0in /  0.0mm 0 W/m2
03:04 71.4 °F /  21.9 °C 68 °F /  20 °C 29.8in /  1009.9hPa West 3.6mph /  5.8km/h 6mph /  9.7km/h 89% 0in /  0.0mm 0 W/m2
03:09 71.4 °F /  21.9 °C 68.2 °F /  20.1 °C 29.8in /  1009.9hPa West 3.6mph /  5.8km/h 4mph /  6.4km/h 89% 0in /  0.0mm 0 W/m2
03:14 71.6 °F /  22 °C 68.2 °F /  20.1 °C 29.8in /  1009.9hPa West 3.4mph /  5.4km/h 5mph /  8km/h 89% 0in /  0.0mm 0 W/m2
03:19 71.8 °F /  22.1 °C 68.4 °F /  20.2 °C 29.8in /  1009.9hPa West 3mph /  4.9km/h 4mph /  6.4km/h 89% 0in /  0.0mm 0 W/m2
03:24 71.8 °F /  22.1 °C 68.4 °F /  20.2 °C 29.8in /  1010.0hPa West 2.9mph /  4.6km/h 3mph /  4.8km/h 89% 0in /  0.0mm 0 W/m2
03:29 71.8 °F /  22.1 °C 68.5 °F /  20.3 °C 29.8in /  1010.0hPa WSW 3.5mph /  5.7km/h 4mph /  6.4km/h 89% 0in /  0.0mm 0 W/m2
03:34 71.8 °F /  22.1 °C 68.4 °F /  20.2 °C 29.8in /  1009.9hPa WSW 3.5mph /  5.6km/h 4mph /  6.4km/h 89% 0in /  0.0mm 0 W/m2
03:39 71.8 °F /  22.1 °C 68.4 °F /  20.2 °C 29.8in /  1009.9hPa WSW 0.2mph /  0.3km/h 4mph /  6.4km/h 89% 0in /  0.0mm 0 W/m2
03:44 71.6 °F /  22 °C 68.4 °F /  20.2 °C 29.8in /  1009.9hPa Calm     89% 0in /  0.0mm 0 W/m2
03:49 71.6 °F /  22 °C 68.4 °F /  20.2 °C 29.8in /  1009.9hPa Calm     89.3% 0in /  0.0mm 0 W/m2
03:54 71.6 °F /  22 °C 68.4 °F /  20.2 °C 29.8in /  1009.9hPa Calm     90% 0in /  0.0mm 0 W/m2
03:59 71.4 °F /  21.9 °C 68.4 °F /  20.2 °C 29.8in /  1009.9hPa Calm     90% 0in /  0.0mm 0 W/m2
04:04 71.4 °F /  21.9 °C 68.4 °F /  20.2 °C 29.8in /  1009.9hPa WSW 1.4mph /  2.3km/h 2.1mph /  3.4km/h 90% 0in /  0.0mm 0 W/m2
04:09 71.4 °F /  21.9 °C 68.2 °F /  20.1 °C 29.8in /  1009.9hPa WSW 3.7mph /  6km/h 4mph /  6.4km/h 90% 0in /  0.0mm 0 W/m2
04:14 71.2 °F /  21.8 °C 68.4 °F /  20.2 °C 29.8in /  1009.9hPa WSW 3.2mph /  5.2km/h 5mph /  8km/h 90.5% 0in /  0.0mm 0 W/m2
04:19 71.2 °F /  21.8 °C 68.4 °F /  20.2 °C 29.8in /  1009.8hPa WSW 3.2mph /  5.2km/h 4mph /  6.4km/h 91% 0in /  0.0mm 0 W/m2
04:24 71.2 °F /  21.8 °C 68.4 °F /  20.2 °C 29.8in /  1009.8hPa WSW 3.7mph /  6km/h 3.5mph /  5.6km/h 91% 0in /  0.0mm 0 W/m2
04:29 71.1 °F /  21.7 °C 68.2 °F /  20.1 °C 29.8in /  1009.8hPa WSW 3.9mph /  6.2km/h 5mph /  8km/h 91% 0in /  0.0mm 0 W/m2
04:34 70.9 °F /  21.6 °C 68.2 °F /  20.1 °C 29.8in /  1009.7hPa WSW 4.4mph /  7.1km/h 6mph /  9.7km/h 91% 0in /  0.0mm 0 W/m2
04:39 70.9 °F /  21.6 °C 68 °F /  20 °C 29.8in /  1009.8hPa WSW 5.7mph /  9.2km/h 7.8mph /  12.6km/h 91% 0in /  0.0mm 0 W/m2
04:44 70.5 °F /  21.4 °C 67.8 °F /  19.9 °C 29.8in /  1009.8hPa WSW 9mph /  14.5km/h 10mph /  16.1km/h 91% 0in /  0.0mm 0 W/m2
04:49 70.3 °F /  21.3 °C 67.5 °F /  19.7 °C 29.8in /  1009.8hPa WSW 7.7mph /  12.4km/h 9mph /  14.5km/h 91% 0in /  0.0mm 0 W/m2
04:54 70 °F /  21.1 °C 67.3 °F /  19.6 °C 29.8in /  1009.6hPa WSW 7.8mph /  12.5km/h 9mph /  14.5km/h 91% 0in /  0.0mm 0 W/m2
04:59 69.6 °F /  20.9 °C 66.9 °F /  19.4 °C 29.8in /  1009.6hPa WSW 7.4mph /  11.9km/h 9mph /  14.5km/h 91% 0in /  0.0mm 0 W/m2
05:04 69.3 °F /  20.7 °C 66.4 °F /  19.1 °C 29.8in /  1009.5hPa WSW 9.4mph /  15.2km/h 8.4mph /  13.5km/h 90.7% 0in /  0.0mm 0 W/m2
05:09 68.9 °F /  20.5 °C 65.8 °F /  18.8 °C 29.8in /  1009.6hPa SW 9.3mph /  15km/h 13mph /  20.9km/h 90% 0in /  0.0mm 0 W/m2
05:14 68.7 °F /  20.4 °C 65.7 °F /  18.7 °C 29.8in /  1009.6hPa SW 8.3mph /  13.3km/h 13mph /  20.9km/h 90% 0in /  0.0mm 0 W/m2
05:19 68.5 °F /  20.3 °C 65.5 °F /  18.6 °C 29.8in /  1009.6hPa WSW 6.2mph /  9.9km/h 9mph /  14.5km/h 90% 0in /  0.0mm 0 W/m2
05:24 68.5 °F /  20.3 °C 65.5 °F /  18.6 °C 29.8in /  1009.8hPa SW 5.7mph /  9.2km/h 8mph /  12.9km/h 90% 0in /  0.0mm 0 W/m2
05:29 68.4 °F /  20.2 °C 65.5 °F /  18.6 °C 29.8in /  1009.8hPa SW 6.3mph /  10.1km/h 7mph /  11.3km/h 90% 0in /  0.0mm 0 W/m2
05:34 68.4 °F /  20.2 °C 65.3 °F /  18.5 °C 29.8in /  1009.8hPa WSW 6.6mph /  10.6km/h 8mph /  12.9km/h 90% 0in /  0.0mm 0 W/m2
05:39 68.2 °F /  20.1 °C 65.1 °F /  18.4 °C 29.8in /  1009.7hPa WSW 7.5mph /  12km/h 7mph /  11.3km/h 90% 0in /  0.0mm 0 W/m2
05:44 68 °F /  20 °C 65.1 °F /  18.4 °C 29.8in /  1009.6hPa WSW 6.8mph /  10.9km/h 9mph /  14.5km/h 90% 0in /  0.0mm 0 W/m2
05:49 68 °F /  20 °C 65.1 °F /  18.4 °C 29.8in /  1009.7hPa WSW 8mph /  12.9km/h 8mph /  12.9km/h 90.5% 0in /  0.0mm 0 W/m2
05:54 67.8 °F /  19.9 °C 65.1 °F /  18.4 °C 29.8in /  1009.7hPa SW 7.9mph /  12.7km/h 10mph /  16.1km/h 91% 0in /  0.0mm 0 W/m2
05:59 67.8 °F /  19.9 °C 65.1 °F /  18.4 °C 29.8in /  1009.8hPa WSW 7.8mph /  12.5km/h 9mph /  14.5km/h 91% 0in /  0.0mm 0 W/m2
06:04 67.6 °F /  19.8 °C 64.9 °F /  18.3 °C 29.8in /  1009.8hPa WSW 8.3mph /  13.3km/h 10mph /  16.1km/h 91% 0in /  0.0mm 0 W/m2
06:09 67.5 °F /  19.7 °C 64.8 °F /  18.2 °C 29.8in /  1009.8hPa WSW 6.8mph /  11km/h 9mph /  14.5km/h 91% 0in /  0.0mm 0 W/m2
06:14 67.5 °F /  19.7 °C 64.8 °F /  18.2 °C 29.8in /  1009.8hPa WSW 8.7mph /  14km/h 8mph /  12.9km/h 91% 0in /  0.0mm 0 W/m2
06:19 67.3 °F /  19.6 °C 64.6 °F /  18.1 °C 29.8in /  1009.8hPa WSW 6.3mph /  10.1km/h 12mph /  19.3km/h 91% 0in /  0.0mm 0 W/m2
06:24 67.1 °F /  19.5 °C 64.4 °F /  18 °C 29.8in /  1009.8hPa WSW 5.3mph /  8.5km/h 6mph /  9.7km/h 91% 0in /  0.0mm 0 W/m2
06:29 67.1 °F /  19.5 °C 64.4 °F /  18 °C 29.8in /  1009.9hPa WSW 6mph /  9.6km/h 7mph /  11.3km/h 91% 0in /  0.0mm 7 W/m2
06:34 66.9 °F /  19.4 °C 64.2 °F /  17.9 °C 29.8in /  1009.9hPa WSW 5.8mph /  9.4km/h 8mph /  12.9km/h 91% 0in /  0.0mm 11 W/m2
06:39 66.9 °F /  19.4 °C 64.4 °F /  18 °C 29.8in /  1009.9hPa WSW 5.8mph /  9.3km/h 7mph /  11.3km/h 91.4% 0in /  0.0mm 14 W/m2
06:44 66.7 °F /  19.3 °C 64 °F /  17.8 °C 29.8in /  1010.0hPa WSW 4.5mph /  7.2km/h 6mph /  9.7km/h 91% 0in /  0.0mm 18 W/m2
06:49 66.7 °F /  19.3 °C 64 °F /  17.8 °C 29.8in /  1010.0hPa WSW 5mph /  8km/h 5mph /  8km/h 91% 0in /  0.0mm 21 W/m2
06:54 66.7 °F /  19.3 °C 64 °F /  17.8 °C 29.8in /  1010.1hPa WSW 5.3mph /  8.6km/h 7mph /  11.3km/h 91% 0in /  0.0mm 25 W/m2
06:59 66.7 °F /  19.3 °C 64 °F /  17.8 °C 29.8in /  1010.1hPa WSW 5.7mph /  9.1km/h 6mph /  9.7km/h 91% 0in /  0.0mm 33 W/m2
07:04 66.7 °F /  19.3 °C 64 °F /  17.8 °C 29.8in /  1010.2hPa WSW 5.2mph /  8.4km/h 6mph /  9.7km/h 91% 0in /  0.0mm 40 W/m2
07:09 66.7 °F /  19.3 °C 64 °F /  17.8 °C 29.8in /  1010.1hPa WSW 5.7mph /  9.1km/h 7mph /  11.3km/h 91% 0in /  0.0mm 40 W/m2
07:14 66.7 °F /  19.3 °C 64 °F /  17.8 °C 29.8in /  1010.1hPa WSW 5.5mph /  8.8km/h 7mph /  11.3km/h 91% 0in /  0.0mm 49 W/m2
07:19 66.7 °F /  19.3 °C 64 °F /  17.8 °C 29.8in /  1010.1hPa WSW 5.7mph /  9.1km/h 6mph /  9.7km/h 91% 0in /  0.0mm 67 W/m2
07:24 66.7 °F /  19.3 °C 64 °F /  17.8 °C 29.8in /  1010.2hPa WSW 6.1mph /  9.8km/h 9mph /  14.5km/h 91% 0in /  0.0mm 72 W/m2
07:29 66.7 °F /  19.3 °C 64 °F /  17.8 °C 29.8in /  1010.2hPa WSW 5mph /  8.1km/h 9mph /  14.5km/h 91% 0in /  0.0mm 79 W/m2
07:34 66.9 °F /  19.4 °C 64.2 °F /  17.9 °C 29.8in /  1010.2hPa WSW 4.9mph /  7.9km/h 5mph /  8km/h 91% 0in /  0.0mm 105 W/m2
07:39 66.9 °F /  19.4 °C 64.2 °F /  17.9 °C 29.8in /  1010.2hPa SW 6.4mph /  10.3km/h 6.5mph /  10.5km/h 91% 0in /  0.0mm 118 W/m2
07:44 66.9 °F /  19.4 °C 64.2 °F /  17.9 °C 29.8in /  1010.2hPa WSW 5.6mph /  9km/h 8mph /  12.9km/h 91% 0in /  0.0mm 132 W/m2
07:49 67.1 °F /  19.5 °C 64.4 °F /  18 °C 29.8in /  1010.3hPa WSW 7.6mph /  12.2km/h 7mph /  11.3km/h 91% 0in /  0.0mm 146 W/m2
07:54 67.3 °F /  19.6 °C 64.6 °F /  18.1 °C 29.8in /  1010.3hPa WSW 5.8mph /  9.3km/h 9mph /  14.5km/h 91% 0in /  0.0mm 156 W/m2
07:59 67.5 °F /  19.7 °C 64.6 °F /  18.1 °C 29.8in /  1010.4hPa SW 7.2mph /  11.6km/h 7mph /  11.3km/h 90.4% 0in /  0.0mm 172 W/m2
08:04 67.5 °F /  19.7 °C 64.4 °F /  18 °C 29.8in /  1010.4hPa WSW 8.3mph /  13.4km/h 9mph /  14.5km/h 90% 0in /  0.0mm 183 W/m2
08:09 67.6 °F /  19.8 °C 64.6 °F /  18.1 °C 29.8in /  1010.4hPa SW 7.7mph /  12.4km/h 10mph /  16.1km/h 90% 0in /  0.0mm 188 W/m2
08:14 67.6 °F /  19.8 °C 64.4 °F /  18 °C 29.8in /  1010.4hPa WSW 7.1mph /  11.5km/h 9mph /  14.5km/h 89.4% 0in /  0.0mm 192 W/m2
08:19 67.8 °F /  19.9 °C 64.4 °F /  18 °C 29.8in /  1010.5hPa WSW 5.2mph /  8.4km/h 8mph /  12.9km/h 89% 0in /  0.0mm 195 W/m2
08:24 68 °F /  20 °C 64.6 °F /  18.1 °C 29.8in /  1010.5hPa SW 4.8mph /  7.7km/h 6mph /  9.7km/h 89% 0in /  0.0mm 206 W/m2
08:29 68.2 °F /  20.1 °C 64.8 °F /  18.2 °C 29.8in /  1010.5hPa WSW 6.3mph /  10.2km/h 7mph /  11.3km/h 88.7% 0in /  0.0mm 207 W/m2
08:34 68.5 °F /  20.3 °C 64.8 °F /  18.2 °C 29.8in /  1010.5hPa WSW 6mph /  9.7km/h 8mph /  12.9km/h 88% 0in /  0.0mm 200 W/m2
08:39 68.5 °F /  20.3 °C 64.9 °F /  18.3 °C 29.8in /  1010.5hPa West 5.3mph /  8.6km/h 7mph /  11.3km/h 87.8% 0in /  0.0mm 199 W/m2
08:44 68.9 °F /  20.5 °C 65.1 °F /  18.4 °C 29.8in /  1010.5hPa WSW 5mph /  8km/h 6mph /  9.7km/h 87.7% 0in /  0.0mm 230 W/m2
08:49 69.1 °F /  20.6 °C 64.9 °F /  18.3 °C 29.8in /  1010.5hPa WSW 6.3mph /  10.2km/h 7mph /  11.3km/h 86.4% 0in /  0.0mm 272 W/m2
08:54 69.6 °F /  20.9 °C 65.1 °F /  18.4 °C 29.8in /  1010.4hPa West 5.5mph /  8.9km/h 7mph /  11.3km/h 85.8% 0in /  0.0mm 297 W/m2
08:59 69.6 °F /  20.9 °C 64.9 °F /  18.3 °C 29.8in /  1010.4hPa WSW 6.3mph /  10.2km/h 7mph /  11.3km/h 85% 0in /  0.0mm 327 W/m2
09:04 70 °F /  21.1 °C 65.1 °F /  18.4 °C 29.8in /  1010.4hPa WSW 5.3mph /  8.5km/h 8mph /  12.9km/h 85% 0in /  0.0mm 348 W/m2
09:09 70.2 °F /  21.2 °C 65.3 °F /  18.5 °C 29.8in /  1010.4hPa West 6mph /  9.6km/h 6mph /  9.7km/h 84.4% 0in /  0.0mm 371 W/m2
09:14 70.3 °F /  21.3 °C 64.9 °F /  18.3 °C 29.8in /  1010.4hPa WSW 7.9mph /  12.7km/h 9mph /  14.5km/h 83.2% 0in /  0.0mm 387 W/m2
09:19 70.3 °F /  21.3 °C 64.9 °F /  18.3 °C 29.8in /  1010.4hPa WSW 7.2mph /  11.6km/h 9mph /  14.5km/h 83% 0in /  0.0mm 401 W/m2
09:24 70.5 °F /  21.4 °C 64.9 °F /  18.3 °C 29.8in /  1010.3hPa West 7.3mph /  11.8km/h 8mph /  12.9km/h 82.5% 0in /  0.0mm 413 W/m2
09:29 70.9 °F /  21.6 °C 64.9 °F /  18.3 °C 29.8in /  1010.4hPa West 6.9mph /  11.1km/h 9mph /  14.5km/h 81.5% 0in /  0.0mm 427 W/m2
09:34 71.2 °F /  21.8 °C 65.1 °F /  18.4 °C 29.8in /  1010.5hPa West 6.8mph /  11km/h 9mph /  14.5km/h 81% 0in /  0.0mm 448 W/m2
09:38 71.4 °F /  21.9 °C 65.1 °F /  18.4 °C 29.8in /  1010.5hPa West 5.7mph /  9.2km/h 8mph /  12.9km/h 80.4% 0in /  0.0mm 454 W/m2
09:44 72 °F /  22.2 °C 65.3 °F /  18.5 °C 29.8in /  1010.5hPa West 6.4mph /  10.3km/h 7mph /  11.3km/h 79.6% 0in /  0.0mm 469 W/m2
09:49 72.1 °F /  22.3 °C 64.9 °F /  18.3 °C 29.8in /  1010.5hPa West 8mph /  12.8km/h 10mph /  16.1km/h 77.8% 0in /  0.0mm 482 W/m2
09:54 72.5 °F /  22.5 °C 65.1 °F /  18.4 °C 29.8in /  1010.5hPa West 6.8mph /  10.9km/h 9mph /  14.5km/h 78% 0in /  0.0mm 494 W/m2
09:59 72.9 °F /  22.7 °C 65.3 °F /  18.5 °C 29.8in /  1010.5hPa WSW 9.3mph /  15km/h 9mph /  14.5km/h 77% 0in /  0.0mm 506 W/m2
10:04 73 °F /  22.8 °C 64.9 °F /  18.3 °C 29.8in /  1010.4hPa WSW 10.3mph /  16.5km/h 12mph /  19.3km/h 75.7% 0in /  0.0mm 515 W/m2
10:09 73.2 °F /  22.9 °C 64.9 °F /  18.3 °C 29.8in /  1010.4hPa SW 8.1mph /  13km/h 12mph /  19.3km/h 75.5% 0in /  0.0mm 533 W/m2
10:14 73.4 °F /  23 °C 65.1 °F /  18.4 °C 29.8in /  1010.4hPa WSW 6.5mph /  10.5km/h 9mph /  14.5km/h 75.2% 0in /  0.0mm 543 W/m2
10:19 73.8 °F /  23.2 °C 65.1 °F /  18.4 °C 29.8in /  1010.3hPa WSW 7.2mph /  11.6km/h 8mph /  12.9km/h 74.3% 0in /  0.0mm 557 W/m2
10:24 73.9 °F /  23.3 °C 64.9 °F /  18.3 °C 29.8in /  1010.4hPa SW 9mph /  14.5km/h 9mph /  14.5km/h 73.3% 0in /  0.0mm 568 W/m2
10:29 74.1 °F /  23.4 °C 64.8 °F /  18.2 °C 29.8in /  1010.3hPa WSW 7.9mph /  12.7km/h 10mph /  16.1km/h 72.8% 0in /  0.0mm 575 W/m2
10:34 74.5 °F /  23.6 °C 65.3 °F /  18.5 °C 29.8in /  1010.3hPa SW 9.3mph /  15km/h 8mph /  12.9km/h 73.3% 0in /  0.0mm 589 W/m2
10:39 74.7 °F /  23.7 °C 65.3 °F /  18.5 °C 29.8in /  1010.4hPa WSW 9.2mph /  14.8km/h 12mph /  19.3km/h 72.3% 0in /  0.0mm 603 W/m2
10:44 74.8 °F /  23.8 °C 65.1 °F /  18.4 °C 29.8in /  1010.5hPa WSW 9.8mph /  15.7km/h 10mph /  16.1km/h 71.4% 0in /  0.0mm 606 W/m2
10:49 75.2 °F /  24 °C 65.1 °F /  18.4 °C 29.8in /  1010.5hPa SW 9.8mph /  15.7km/h 13mph /  20.9km/h 71.1% 0in /  0.0mm 606 W/m2
10:54 75.6 °F /  24.2 °C 65.1 °F /  18.4 °C 29.8in /  1010.5hPa SW 9.4mph /  15.1km/h 12mph /  19.3km/h 70% 0in /  0.0mm 608 W/m2
10:59 75.6 °F /  24.2 °C 64.9 °F /  18.3 °C 29.8in /  1010.4hPa West 9.3mph /  14.9km/h 10mph /  16.1km/h 69.4% 0in /  0.0mm 606 W/m2
11:04 75.7 °F /  24.3 °C 65.1 °F /  18.4 °C 29.8in /  1010.3hPa West 8.4mph /  13.5km/h 12mph /  19.3km/h 69.4% 0in /  0.0mm 594 W/m2
11:09 76.1 °F /  24.5 °C 65.1 °F /  18.4 °C 29.8in /  1010.3hPa West 6.5mph /  10.5km/h 12mph /  19.3km/h 68.8% 0in /  0.0mm 584 W/m2
11:14 76.3 °F /  24.6 °C 65.1 °F /  18.4 °C 29.8in /  1010.2hPa West 6.6mph /  10.7km/h 8mph /  12.9km/h 68.4% 0in /  0.0mm 570 W/m2
11:19 76.5 °F /  24.7 °C 65.3 °F /  18.5 °C 29.8in /  1010.2hPa West 6.4mph /  10.3km/h 8mph /  12.9km/h 68.5% 0in /  0.0mm 561 W/m2
11:24 76.8 °F /  24.9 °C 65.5 °F /  18.6 °C 29.8in /  1010.2hPa West 5.2mph /  8.3km/h 7mph /  11.3km/h 68% 0in /  0.0mm 566 W/m2
11:29 76.8 °F /  24.9 °C 65.5 °F /  18.6 °C 29.8in /  1010.1hPa West 5.9mph /  9.5km/h 6mph /  9.7km/h 68% 0in /  0.0mm 566 W/m2
11:34 76.6 °F /  24.8 °C 65.5 °F /  18.6 °C 29.8in /  1010.1hPa WSW 4.8mph /  7.8km/h 8mph /  12.9km/h 68.3% 0in /  0.0mm 598 W/m2
11:39 77.4 °F /  25.2 °C 66 °F /  18.9 °C 29.8in /  1010.0hPa WSW 4.7mph /  7.5km/h 7mph /  11.3km/h 68.1% 0in /  0.0mm 598 W/m2
11:44 78.1 °F /  25.6 °C 66.2 °F /  19 °C 29.8in /  1010.0hPa WNW 5.4mph /  8.7km/h 6mph /  9.7km/h 67.2% 0in /  0.0mm 608 W/m2
11:49 77.7 °F /  25.4 °C 66 °F /  18.9 °C 29.8in /  1010.0hPa WNW 4.8mph /  7.8km/h 7mph /  11.3km/h 67.2% 0in /  0.0mm 684 W/m2
11:54 77.5 °F /  25.3 °C 65.8 °F /  18.8 °C 29.8in /  1010.0hPa WNW 5mph /  8km/h 6mph /  9.7km/h 67.2% 0in /  0.0mm 726 W/m2
11:59 77.7 °F /  25.4 °C 66 °F /  18.9 °C 29.8in /  1010.0hPa WSW 5.2mph /  8.3km/h 6mph /  9.7km/h 67% 0in /  0.0mm 737 W/m2
12:04 77.9 °F /  25.5 °C 65.7 °F /  18.7 °C 29.8in /  1010.0hPa West 4.8mph /  7.7km/h 6mph /  9.7km/h 66.2% 0in /  0.0mm 772 W/m2
12:09 77.9 °F /  25.5 °C 65.8 °F /  18.8 °C 29.8in /  1010.0hPa West 4.8mph /  7.7km/h 5mph /  8km/h 66.3% 0in /  0.0mm 779 W/m2
12:14 78.1 °F /  25.6 °C 66 °F /  18.9 °C 29.8in /  1010.0hPa NW 6.2mph /  10km/h 6.3mph /  10.1km/h 66.3% 0in /  0.0mm 788 W/m2
12:19 78.8 °F /  26 °C 66 °F /  18.9 °C 29.8in /  1009.9hPa WSW 5.6mph /  9km/h 8mph /  12.9km/h 65.2% 0in /  0.0mm 807 W/m2
12:24 79 °F /  26.1 °C 65.3 °F /  18.5 °C 29.8in /  1009.9hPa West 5.8mph /  9.4km/h 8mph /  12.9km/h 63.2% 0in /  0.0mm 805 W/m2
12:29 78.8 °F /  26 °C 65.5 °F /  18.6 °C 29.8in /  1009.9hPa West 6mph /  9.7km/h 8mph /  12.9km/h 63.8% 0in /  0.0mm 807 W/m2
12:34 79.3 °F /  26.3 °C 65.7 °F /  18.7 °C 29.8in /  1009.9hPa WSW 5mph /  8.1km/h 6mph /  9.7km/h 63% 0in /  0.0mm 809 W/m2
12:39 79.7 °F /  26.5 °C 66 °F /  18.9 °C 29.8in /  1009.9hPa WSW 5.7mph /  9.1km/h 8mph /  12.9km/h 62.8% 0in /  0.0mm 823 W/m2
12:44 80.1 °F /  26.7 °C 66.4 °F /  19.1 °C 29.8in /  1009.8hPa West 5.8mph /  9.3km/h 8mph /  12.9km/h 63% 0in /  0.0mm 817 W/m2
12:49 80.2 °F /  26.8 °C 66.6 °F /  19.2 °C 29.8in /  1009.7hPa West 4.7mph /  7.5km/h 7mph /  11.3km/h 63.1% 0in /  0.0mm 788 W/m2
12:54 80.4 °F /  26.9 °C 66.7 °F /  19.3 °C 29.8in /  1009.6hPa West 5.1mph /  8.2km/h 5.2mph /  8.4km/h 63.3% 0in /  0.0mm 867 W/m2
12:58 80.6 °F /  27 °C 66.9 °F /  19.4 °C 29.8in /  1009.5hPa WSW 5.4mph /  8.7km/h 8mph /  12.9km/h 63.4% 0in /  0.0mm 867 W/m2
13:04 81 °F /  27.2 °C 67.1 °F /  19.5 °C 29.8in /  1009.4hPa WSW 5mph /  8km/h 6mph /  9.7km/h 62.9% 0in /  0.0mm 856 W/m2
13:09 81.1 °F /  27.3 °C 66.7 °F /  19.3 °C 29.8in /  1009.3hPa West 4.5mph /  7.3km/h 8mph /  12.9km/h 61.7% 0in /  0.0mm 842 W/m2
13:13 80.8 °F /  27.1 °C 66.6 °F /  19.2 °C 29.8in /  1009.3hPa NW 4.3mph /  7km/h 6mph /  9.7km/h 62% 0in /  0.0mm 846 W/m2
13:19 81 °F /  27.2 °C 66.2 °F /  19 °C 29.8in /  1009.3hPa West 5.4mph /  8.7km/h 7.1mph /  11.4km/h 60.7% 0in /  0.0mm 851 W/m2
13:24 81.5 °F /  27.5 °C 66.2 °F /  19 °C 29.8in /  1009.3hPa NW 4.9mph /  7.9km/h 8mph /  12.9km/h 59.7% 0in /  0.0mm 854 W/m2
13:29 81.1 °F /  27.3 °C 66.4 °F /  19.1 °C 29.8in /  1009.2hPa WNW 5mph /  8.1km/h 6mph /  9.7km/h 60.7% 0in /  0.0mm 821 W/m2
13:34 81.5 °F /  27.5 °C 66 °F /  18.9 °C 29.8in /  1009.0hPa WSW 6.6mph /  10.6km/h 7.3mph /  11.7km/h 59.6% 0in /  0.0mm 749 W/m2
13:39 81.7 °F /  27.6 °C 65.7 °F /  18.7 °C 29.8in /  1009.0hPa NW 6.2mph /  10km/h 9mph /  14.5km/h 58.4% 0in /  0.0mm 712 W/m2
13:44 81.3 °F /  27.4 °C 66.2 °F /  19 °C 29.8in /  1009.0hPa NW 3.4mph /  5.4km/h 8mph /  12.9km/h 60.2% 0in /  0.0mm 647 W/m2
13:49 81.7 °F /  27.6 °C 66.7 °F /  19.3 °C 29.8in /  1008.9hPa SW 4.1mph /  6.6km/h 5mph /  8km/h 60.8% 0in /  0.0mm 731 W/m2
13:54 82.4 °F /  28 °C 66.7 °F /  19.3 °C 29.8in /  1008.9hPa West 6.6mph /  10.7km/h 7mph /  11.3km/h 59.3% 0in /  0.0mm 833 W/m2
13:59 82.2 °F /  27.9 °C 67.3 °F /  19.6 °C 29.8in /  1008.8hPa WNW 5.7mph /  9.1km/h 8mph /  12.9km/h 60.7% 0in /  0.0mm 851 W/m2
14:04 82.2 °F /  27.9 °C 67.8 °F /  19.9 °C 29.8in /  1008.7hPa WNW 5.2mph /  8.3km/h 8mph /  12.9km/h 61.8% 0in /  0.0mm 870 W/m2
14:09 82.6 °F /  28.1 °C 68.2 °F /  20.1 °C 29.8in /  1008.6hPa NNW 5.3mph /  8.5km/h 6mph /  9.7km/h 62.2% 0in /  0.0mm 821 W/m2
14:14 82.2 °F /  27.9 °C 68 °F /  20 °C 29.8in /  1008.7hPa NNW 4.6mph /  7.4km/h 7mph /  11.3km/h 62.1% 0in /  0.0mm 838 W/m2
14:19 82.2 °F /  27.9 °C 67.8 °F /  19.9 °C 29.8in /  1008.7hPa NE 3.9mph /  6.3km/h 6mph /  9.7km/h 61.8% 0in /  0.0mm 780 W/m2
14:24 82.9 °F /  28.3 °C 67.8 °F /  19.9 °C 29.8in /  1008.7hPa South 3.6mph /  5.8km/h 6mph /  9.7km/h 60.7% 0in /  0.0mm 826 W/m2
14:29 83.7 °F /  28.7 °C 68.2 °F /  20.1 °C 29.8in /  1008.5hPa SE 2.7mph /  4.4km/h 5mph /  8km/h 60% 0in /  0.0mm 501 W/m2
14:34 83.8 °F /  28.8 °C 68.2 °F /  20.1 °C 29.8in /  1008.5hPa SW 3.6mph /  5.8km/h 3.7mph /  6km/h 59.7% 0in /  0.0mm 411 W/m2
14:39 83.7 °F /  28.7 °C 68.5 °F /  20.3 °C 29.8in /  1008.5hPa SW 5.2mph /  8.4km/h 5mph /  8km/h 60.7% 0in /  0.0mm 603 W/m2
14:44 83.7 °F /  28.7 °C 68.7 °F /  20.4 °C 29.8in /  1008.5hPa WSW 4.9mph /  7.9km/h 8mph /  12.9km/h 61.2% 0in /  0.0mm 548 W/m2
14:49 83.3 °F /  28.5 °C 68.4 °F /  20.2 °C 29.8in /  1008.5hPa SW 5mph /  8km/h 7mph /  11.3km/h 60.8% 0in /  0.0mm 561 W/m2
14:54 83.5 °F /  28.6 °C 68.5 °F /  20.3 °C 29.8in /  1008.3hPa West 4.7mph /  7.6km/h 6mph /  9.7km/h 61.2% 0in /  0.0mm 568 W/m2
14:59 83.3 °F /  28.5 °C 68.4 °F /  20.2 °C 29.8in /  1008.4hPa WSW 5.3mph /  8.5km/h 6mph /  9.7km/h 61% 0in /  0.0mm 548 W/m2
15:04 82.9 °F /  28.3 °C 68.4 °F /  20.2 °C 29.8in /  1008.3hPa SSW 4.8mph /  7.8km/h 6mph /  9.7km/h 61.5% 0in /  0.0mm 476 W/m2
15:09 83.1 °F /  28.4 °C 68.4 °F /  20.2 °C 29.8in /  1008.3hPa SSW 3.7mph /  6km/h 6mph /  9.7km/h 61.3% 0in /  0.0mm 571 W/m2
15:14 83.3 °F /  28.5 °C 68.4 °F /  20.2 °C 29.8in /  1008.3hPa WSW 6.2mph /  9.9km/h 6mph /  9.7km/h 61% 0in /  0.0mm 592 W/m2
15:19 83.5 °F /  28.6 °C 68.4 °F /  20.2 °C 29.8in /  1008.3hPa WSW 5.5mph /  8.9km/h 8mph /  12.9km/h 60.6% 0in /  0.0mm 550 W/m2
15:24 83.5 °F /  28.6 °C 68 °F /  20 °C 29.8in /  1008.3hPa SW 7mph /  11.3km/h 7mph /  11.3km/h 59.4% 0in /  0.0mm 642 W/m2
15:29 83.5 °F /  28.6 °C 67.6 °F /  19.8 °C 29.8in /  1008.3hPa SSW 5.7mph /  9.1km/h 9mph /  14.5km/h 59% 0in /  0.0mm 642 W/m2
15:34 83.5 °F /  28.6 °C 67.6 °F /  19.8 °C 29.8in /  1008.3hPa SW 8mph /  12.8km/h 6.9mph /  11.1km/h 59% 0in /  0.0mm 629 W/m2
15:39 83.3 °F /  28.5 °C 67.6 °F /  19.8 °C 29.8in /  1008.3hPa SW 5.6mph /  9km/h 10mph /  16.1km/h 59.3% 0in /  0.0mm 346 W/m2
15:44 83.3 °F /  28.5 °C 67.6 °F /  19.8 °C 29.8in /  1008.3hPa WSW 5.1mph /  8.2km/h 7mph /  11.3km/h 59.2% 0in /  0.0mm 381 W/m2
15:48 83.3 °F /  28.5 °C 67.1 °F /  19.5 °C 29.8in /  1008.3hPa WSW 6.2mph /  10km/h 8mph /  12.9km/h 58% 0in /  0.0mm 325 W/m2
15:54 83.3 °F /  28.5 °C 67.1 °F /  19.5 °C 29.8in /  1008.3hPa SW 3.2mph /  5.2km/h 8mph /  12.9km/h 58.2% 0in /  0.0mm 677 W/m2
15:59 83.3 °F /  28.5 °C 67.1 °F /  19.5 °C 29.8in /  1008.3hPa SSW 7.2mph /  11.6km/h 8mph /  12.9km/h 58.1% 0in /  0.0mm 677 W/m2
16:04 83.1 °F /  28.4 °C 66.9 °F /  19.4 °C 29.8in /  1008.3hPa South 5.8mph /  9.4km/h 9mph /  14.5km/h 58.2% 0in /  0.0mm 606 W/m2
16:09 83.7 °F /  28.7 °C 67.1 °F /  19.5 °C 29.8in /  1008.2hPa South 5.4mph /  8.7km/h 7mph /  11.3km/h 57.6% 0in /  0.0mm 517 W/m2
16:14 83.7 °F /  28.7 °C 66.9 °F /  19.4 °C 29.8in /  1008.1hPa SW 6.2mph /  9.9km/h 7mph /  11.3km/h 57.1% 0in /  0.0mm 441 W/m2
16:19 83.5 °F /  28.6 °C 66.7 °F /  19.3 °C 29.8in /  1008.1hPa SSW 7.7mph /  12.4km/h 8mph /  12.9km/h 57% 0in /  0.0mm 432 W/m2
16:24 83.3 °F /  28.5 °C 66.7 °F /  19.3 °C 29.8in /  1008.1hPa South 5.8mph /  9.3km/h 9mph /  14.5km/h 57.4% 0in /  0.0mm 369 W/m2
16:29 83.5 °F /  28.6 °C 66.9 °F /  19.4 °C 29.8in /  1008.1hPa SW 6.5mph /  10.5km/h 7mph /  11.3km/h 57.7% 0in /  0.0mm 295 W/m2
16:34 83.5 °F /  28.6 °C 66.7 °F /  19.3 °C 29.8in /  1008.1hPa West 6.3mph /  10.1km/h 9mph /  14.5km/h 57% 0in /  0.0mm 362 W/m2
16:39 83.5 °F /  28.6 °C 66.6 °F /  19.2 °C 29.8in /  1008.0hPa WSW 6.5mph /  10.4km/h 7mph /  11.3km/h 56.8% 0in /  0.0mm 425 W/m2
16:44 83.5 °F /  28.6 °C 66.2 °F /  19 °C 29.8in /  1008.0hPa WSW 8.1mph /  13km/h 8.1mph /  13km/h 56.2% 0in /  0.0mm 527 W/m2
16:49 83.5 °F /  28.6 °C 66.2 °F /  19 °C 29.8in /  1008.0hPa WSW 9.9mph /  15.9km/h 10mph /  16.1km/h 56% 0in /  0.0mm 617 W/m2
16:54 83.5 °F /  28.6 °C 65.8 °F /  18.8 °C 29.8in /  1008.0hPa WSW 8.6mph /  13.8km/h 12mph /  19.3km/h 55.4% 0in /  0.0mm 457 W/m2
16:59 83.3 °F /  28.5 °C 66 °F /  18.9 °C 29.8in /  1008.0hPa West 8mph /  12.8km/h 12mph /  19.3km/h 56% 0in /  0.0mm 401 W/m2
17:04 83.1 °F /  28.4 °C 65.5 °F /  18.6 °C 29.8in /  1008.0hPa WNW 8.8mph /  14.2km/h 10mph /  16.1km/h 55.4% 0in /  0.0mm 508 W/m2
17:09 82.9 °F /  28.3 °C 64.6 °F /  18.1 °C 29.8in /  1007.9hPa West 9.5mph /  15.3km/h 12mph /  19.3km/h 53.8% 0in /  0.0mm 397 W/m2
17:14 82.9 °F /  28.3 °C 64.6 °F /  18.1 °C 29.8in /  1008.0hPa West 8.9mph /  14.3km/h 12mph /  19.3km/h 54.2% 0in /  0.0mm 461 W/m2
17:19 82.8 °F /  28.2 °C 65.3 °F /  18.5 °C 29.8in /  1007.9hPa WSW 8.1mph /  13km/h 12mph /  19.3km/h 55.5% 0in /  0.0mm 285 W/m2
17:24 82.8 °F /  28.2 °C 65.3 °F /  18.5 °C 29.8in /  1007.9hPa WSW 7.8mph /  12.6km/h 10mph /  16.1km/h 55.5% 0in /  0.0mm 276 W/m2
17:29 82.6 °F /  28.1 °C 64.8 °F /  18.2 °C 29.8in /  1007.9hPa WSW 9.3mph /  15km/h 10mph /  16.1km/h 55% 0in /  0.0mm 287 W/m2
17:34 82.2 °F /  27.9 °C 64.4 °F /  18 °C 29.8in /  1007.8hPa West 8mph /  12.8km/h 12mph /  19.3km/h 55% 0in /  0.0mm 243 W/m2
17:39 82 °F /  27.8 °C 64.2 °F /  17.9 °C 29.8in /  1007.8hPa WSW 7.6mph /  12.2km/h 10mph /  16.1km/h 55% 0in /  0.0mm 230 W/m2
17:44 81.9 °F /  27.7 °C 64.2 °F /  17.9 °C 29.8in /  1007.8hPa West 7.5mph /  12km/h 9mph /  14.5km/h 55% 0in /  0.0mm 227 W/m2
17:49 81.7 °F /  27.6 °C 64 °F /  17.8 °C 29.8in /  1007.7hPa West 9.4mph /  15.1km/h 10mph /  16.1km/h 55.2% 0in /  0.0mm 206 W/m2
17:54 81.5 °F /  27.5 °C 63.7 °F /  17.6 °C 29.8in /  1007.6hPa West 7.9mph /  12.7km/h 12mph /  19.3km/h 55% 0in /  0.0mm 188 W/m2
17:59 81.3 °F /  27.4 °C 63.5 °F /  17.5 °C 29.8in /  1007.6hPa WSW 8.3mph /  13.4km/h 9mph /  14.5km/h 55% 0in /  0.0mm 178 W/m2
18:04 81.1 °F /  27.3 °C 63.5 °F /  17.5 °C 29.8in /  1007.5hPa WSW 8.6mph /  13.9km/h 10mph /  16.1km/h 55% 0in /  0.0mm 178 W/m2
18:09 81 °F /  27.2 °C 63.3 °F /  17.4 °C 29.8in /  1007.6hPa WSW 7.4mph /  11.9km/h 10mph /  16.1km/h 55% 0in /  0.0mm 167 W/m2
18:14 80.8 °F /  27.1 °C 63.5 °F /  17.5 °C 29.8in /  1007.5hPa WSW 7.1mph /  11.5km/h 9mph /  14.5km/h 55.6% 0in /  0.0mm 155 W/m2
18:19 80.8 °F /  27.1 °C 63.7 °F /  17.6 °C 29.8in /  1007.6hPa WSW 6mph /  9.6km/h 8mph /  12.9km/h 56.3% 0in /  0.0mm 148 W/m2
18:24 80.8 °F /  27.1 °C 64 °F /  17.8 °C 29.8in /  1007.5hPa WSW 7.5mph /  12km/h 8mph /  12.9km/h 57% 0in /  0.0mm 135 W/m2
18:29 80.8 °F /  27.1 °C 64.6 °F /  18.1 °C 29.8in /  1007.5hPa WSW 5.6mph /  9km/h 9mph /  14.5km/h 58% 0in /  0.0mm 134 W/m2
18:34 80.6 °F /  27 °C 64.9 °F /  18.3 °C 29.8in /  1007.4hPa WSW 6.3mph /  10.1km/h 7mph /  11.3km/h 59% 0in /  0.0mm 139 W/m2
18:39 80.6 °F /  27 °C 64.8 °F /  18.2 °C 29.7in /  1007.3hPa SW 5.7mph /  9.2km/h 7mph /  11.3km/h 58.6% 0in /  0.0mm 141 W/m2
18:44 80.6 °F /  27 °C 64.6 °F /  18.1 °C 29.7in /  1007.2hPa WSW 6.3mph /  10.2km/h 8mph /  12.9km/h 58.2% 0in /  0.0mm 141 W/m2
18:49 80.4 °F /  26.9 °C 64.4 °F /  18 °C 29.7in /  1007.2hPa WSW 6.4mph /  10.3km/h 7mph /  11.3km/h 58% 0in /  0.0mm 153 W/m2
18:53 80.4 °F /  26.9 °C 64.4 °F /  18 °C 29.7in /  1007.2hPa WSW 8.1mph /  13km/h 8mph /  12.9km/h 58% 0in /  0.0mm 153 W/m2
18:59 80.4 °F /  26.9 °C 64.4 °F /  18 °C 29.7in /  1007.1hPa WSW 8mph /  12.8km/h 9mph /  14.5km/h 58.2% 0in /  0.0mm 167 W/m2
19:04 80.2 °F /  26.8 °C 64 °F /  17.8 °C 29.7in /  1007.0hPa WSW 8.9mph /  14.3km/h 10mph /  16.1km/h 57.6% 0in /  0.0mm 174 W/m2
19:09 80.2 °F /  26.8 °C 64.2 °F /  17.9 °C 29.7in /  1007.0hPa WSW 6.2mph /  10km/h 10mph /  16.1km/h 58.2% 0in /  0.0mm 174 W/m2
19:14 80.2 °F /  26.8 °C 64.9 °F /  18.3 °C 29.7in /  1007.1hPa SW 6.2mph /  10km/h 7mph /  11.3km/h 59.7% 0in /  0.0mm 135 W/m2
19:19 80.2 °F /  26.8 °C 64.8 °F /  18.2 °C 29.7in /  1007.2hPa SW 6.8mph /  11km/h 8mph /  12.9km/h 59.3% 0in /  0.0mm 120 W/m2
19:23 80.1 °F /  26.7 °C 64.8 °F /  18.2 °C 29.7in /  1007.1hPa SW 6.2mph /  9.9km/h 8mph /  12.9km/h 59.4% 0in /  0.0mm 107 W/m2
19:29 80.1 °F /  26.7 °C 64.9 °F /  18.3 °C 29.7in /  1007.2hPa WSW 5.4mph /  8.7km/h 7mph /  11.3km/h 60% 0in /  0.0mm 83 W/m2
19:34 79.9 °F /  26.6 °C 64.8 °F /  18.2 °C 29.7in /  1007.2hPa WSW 5.1mph /  8.2km/h 6mph /  9.7km/h 60.2% 0in /  0.0mm 62 W/m2
19:39 79.7 °F /  26.5 °C 65.1 °F /  18.4 °C 29.7in /  1007.2hPa SW 5.4mph /  8.7km/h 6mph /  9.7km/h 61% 0in /  0.0mm 47 W/m2
19:44 79.5 °F /  26.4 °C 64.9 °F /  18.3 °C 29.7in /  1007.2hPa SW 4.3mph /  6.9km/h 6mph /  9.7km/h 61% 0in /  0.0mm 42 W/m2
19:49 79.3 °F /  26.3 °C 65.1 °F /  18.4 °C 29.8in /  1007.4hPa SW 3.9mph /  6.2km/h 6mph /  9.7km/h 62% 0in /  0.0mm 37 W/m2
19:54 79.2 °F /  26.2 °C 65.1 °F /  18.4 °C 29.8in /  1007.4hPa SW 4.6mph /  7.4km/h 5mph /  8km/h 62.2% 0in /  0.0mm 53 W/m2
19:59 79 °F /  26.1 °C 65.1 °F /  18.4 °C 29.7in /  1007.3hPa SW 4mph /  6.4km/h 6mph /  9.7km/h 62.8% 0in /  0.0mm 60 W/m2
20:04 78.8 °F /  26 °C 65.1 °F /  18.4 °C 29.7in /  1007.3hPa SW 4.1mph /  6.6km/h 5mph /  8km/h 63% 0in /  0.0mm 54 W/m2
20:09 78.6 °F /  25.9 °C 64.9 °F /  18.3 °C 29.7in /  1007.3hPa SW 4.7mph /  7.6km/h 5mph /  8km/h 63% 0in /  0.0mm 40 W/m2
20:14 78.4 °F /  25.8 °C 65.1 °F /  18.4 °C 29.7in /  1007.2hPa SW 3.4mph /  5.4km/h 6mph /  9.7km/h 63.8% 0in /  0.0mm 25 W/m2
20:19 78.3 °F /  25.7 °C 65.1 °F /  18.4 °C 29.7in /  1007.2hPa SW 5.5mph /  8.8km/h 5mph /  8km/h 64% 0in /  0.0mm 16 W/m2
20:24 78.1 °F /  25.6 °C 64.9 °F /  18.3 °C 29.7in /  1007.2hPa SW 5.3mph /  8.5km/h 7mph /  11.3km/h 64% 0in /  0.0mm 11 W/m2
20:29 77.9 °F /  25.5 °C 64.8 °F /  18.2 °C 29.7in /  1007.3hPa WSW 5.4mph /  8.7km/h 7mph /  11.3km/h 64% 0in /  0.0mm 7 W/m2
20:34 77.5 °F /  25.3 °C 64.8 °F /  18.2 °C 29.8in /  1007.4hPa SW 5.2mph /  8.3km/h 6mph /  9.7km/h 64.9% 0in /  0.0mm 5 W/m2
20:39 77.4 °F /  25.2 °C 64.6 °F /  18.1 °C 29.8in /  1007.4hPa WSW 4.9mph /  7.9km/h 6mph /  9.7km/h 65% 0in /  0.0mm 0 W/m2
20:44 77.2 °F /  25.1 °C 64.4 °F /  18 °C 29.8in /  1007.5hPa WSW 5.8mph /  9.3km/h 6mph /  9.7km/h 65% 0in /  0.0mm 0 W/m2
20:49 77 °F /  25 °C 64.4 °F /  18 °C 29.8in /  1007.5hPa SW 6.1mph /  9.8km/h 6mph /  9.7km/h 65.1% 0in /  0.0mm 0 W/m2
20:53 76.8 °F /  24.9 °C 64.4 °F /  18 °C 29.8in /  1007.6hPa WSW 6.6mph /  10.6km/h 7mph /  11.3km/h 65.6% 0in /  0.0mm 0 W/m2
23:39 71.6 °F /  22 °C 63.7 °F /  17.6 °C 29.8in /  1007.7hPa SW 6.9mph /  11.1km/h 4.2mph /  6.8km/h 76% 0in /  0.0mm 0 W/m2
23:44 71.6 °F /  22 °C 63.5 °F /  17.5 °C 29.8in /  1007.8hPa WSW 5.5mph /  8.9km/h 4.3mph /  6.9km/h 76% 0in /  0.0mm 0 W/m2
23:49 71.4 °F /  21.9 °C 63.5 °F /  17.5 °C 29.8in /  1007.8hPa SW 5.6mph /  9km/h 6mph /  9.7km/h 76% 0in /  0.0mm 0 W/m2
23:54 71.2 °F /  21.8 °C 63.3 °F /  17.4 °C 29.8in /  1007.9hPa WSW 5.4mph /  8.7km/h 7mph /  11.3km/h 76.3% 0in /  0.0mm 0 W/m2
23:59 71.2 °F /  21.8 °C 63.5 °F /  17.5 °C 29.8in /  1007.9hPa WSW 4.7mph /  7.6km/h 7mph /  11.3km/h 76.8% 0in /  0.0mm 0 W/m2
Lodi Weather
Compliments of Weather Underground - 3.25 mb